Time;durP1;ratioP1;P1;durP2;ratioP2;P2;SDS_P1;SDS_P2;PMS_P1;PMS_P2;Temp;Humidity;BMP_temperature;BMP_pressure;BME280_temperature;BME280_humidity;BME280_pressure;Samples;Min_cycle;Max_cycle;Signal;HPM_P1;HPM_P2
2021/04/02 00:00:14;;;;;;;;;;;2.10;99.90;;;;;;5076917;28;20043;-77
2021/04/02 00:02:40;;;;;;;9.70;3.63;;;2.20;99.90;;;;;;5093545;28;20302;-77
2021/04/02 00:05:06;;;;;;;;;;;2.20;99.90;;;;;;5097946;28;20043;-77
2021/04/02 00:07:32;;;;;;;10.13;3.20;;;2.20;99.90;;;;;;5095067;28;19916;-79
2021/04/02 00:09:58;;;;;;;8.23;3.38;;;2.20;99.90;;;;;;5099185;28;20295;-79
2021/04/02 00:12:24;;;;;;;8.77;3.78;;;2.20;99.90;;;;;;5072827;28;20035;-78
2021/04/02 00:14:49;;;;;;;10.18;3.40;;;2.20;99.90;;;;;;5087313;28;20119;-78
2021/04/02 00:17:15;;;;;;;9.48;4.15;;;2.30;99.90;;;;;;5100421;28;20040;-79
2021/04/02 00:19:41;;;;;;;8.85;4.32;;;2.40;99.90;;;;;;5097010;28;20035;-78
2021/04/02 00:22:07;;;;;;;12.55;4.18;;;2.40;99.90;;;;;;5101322;27;20143;-79
2021/04/02 00:24:34;;;;;;;7.65;4.30;;;2.40;99.90;;;;;;5090430;28;20077;-79
2021/04/02 00:27:00;;;;;;;10.63;4.68;;;2.50;99.90;;;;;;5113564;27;20462;-78
2021/04/02 00:29:26;;;;;;;21.10;5.35;;;2.50;99.90;;;;;;5089964;28;20036;-77
2021/04/02 00:31:51;;;;;;;10.20;4.22;;;2.50;99.90;;;;;;5134423;27;20426;-77
2021/04/02 00:34:17;;;;;;;9.90;4.82;;;2.60;99.90;;;;;;5096711;27;20136;-77
2021/04/02 00:36:43;;;;;;;14.88;5.00;;;2.70;99.90;;;;;;5131611;27;20383;-78
2021/04/02 00:39:09;;;;;;;9.77;4.80;;;2.70;99.90;;;;;;5098129;27;20088;-77
2021/04/02 00:41:34;;;;;;;17.45;6.30;;;2.80;99.90;;;;;;5111885;27;20120;-77
2021/04/02 00:44:00;;;;;;;14.32;5.47;;;2.90;99.90;;;;;;5110700;28;20152;-77
2021/04/02 00:46:26;;;;;;;14.40;4.72;;;3.00;99.90;;;;;;5095576;27;20035;-77
2021/04/02 00:48:58;;;;;;;10.98;4.68;;;3.00;99.90;;;;;;5061967;28;20388;-76
2021/04/02 00:51:29;;;;;;;14.00;5.18;;;3.30;99.90;;;;;;5108410;27;20035;-78
2021/04/02 00:53:56;;;;;;;12.35;4.90;;;3.10;99.90;;;;;;5112973;27;20074;-77
2021/04/02 00:56:22;;;;;;;12.73;5.60;;;3.20;99.90;;;;;;5098934;27;20333;-78
2021/04/02 00:58:49;;;;;;;13.68;5.53;;;3.20;99.90;;;;;;5107670;27;20035;-78
2021/04/02 01:01:15;;;;;;;11.02;5.00;;;3.20;99.90;;;;;;5139756;27;20045;-78
2021/04/02 01:03:42;;;;;;;8.55;4.82;;;3.30;99.90;;;;;;5129100;27;20034;-78
2021/04/02 01:06:18;;;;;;;15.90;5.75;;;3.40;99.90;;;;;;5149955;27;20046;-79
2021/04/02 01:08:44;;;;;;;8.05;4.97;;;3.50;99.90;;;;;;5144140;27;20045;-78
2021/04/02 01:11:16;;;;;;;14.50;5.22;;;3.50;99.90;;;;;;5102085;27;20031;-78
2021/04/02 01:13:45;;;;;;;10.93;5.20;;;3.50;99.90;;;;;;5111731;27;20087;-77
2021/04/02 01:16:17;;;;;;;8.95;5.07;;;3.50;99.90;;;;;;5133206;27;20122;-77
2021/04/02 01:19:07;;;;;;;10.38;4.80;;;3.50;99.90;;;;;;5132072;27;20109;-76
2021/04/02 01:21:54;;;;;;;12.05;4.97;;;3.50;99.90;;;;;;5116543;27;20039;-76
2021/04/02 01:24:23;;;;;;;11.40;4.50;;;3.40;99.90;;;;;;5134469;27;20043;-77
2021/04/02 01:26:56;;;;;;;12.85;5.88;;;4.70;99.90;;;;;;5134597;27;20038;-79
2021/04/02 01:29:32;;;;;;;11.45;4.68;;;3.40;99.90;;;;;;5130556;27;20119;-78
2021/04/02 01:32:00;;;;;;;14.55;4.57;;;3.30;99.90;;;;;;5132158;27;20390;-78
2021/04/02 01:34:33;;;;;;;9.20;4.18;;;3.40;99.90;;;;;;5088666;27;20448;-78
2021/04/02 01:37:06;;;;;;;8.45;4.40;;;3.30;99.90;;;;;;5131127;27;20027;-76
2021/04/02 01:39:35;;;;;;;6.68;3.80;;;3.40;99.90;;;;;;5108592;28;20077;-77
2021/04/02 01:42:04;;;;;;;9.27;4.45;;;3.50;99.90;;;;;;5120362;27;20042;-76
2021/04/02 01:44:33;;;;;;;8.43;3.45;;;3.40;99.90;;;;;;5114616;27;20115;-77
2021/04/02 01:47:01;;;;;;;8.23;4.13;;;4.10;99.90;;;;;;5110944;27;20039;-77
2021/04/02 01:49:28;;;;;;;8.50;4.25;;;3.40;99.90;;;;;;5128262;27;20031;-78
2021/04/02 01:51:55;;;;;;;9.13;4.15;;;3.40;99.90;;;;;;5114126;27;20541;-78
2021/04/02 01:54:22;;;;;;;7.25;3.78;;;3.40;99.90;;;;;;5111161;27;20062;-79
2021/04/02 01:56:50;;;;;;;9.80;4.15;;;3.40;99.90;;;;;;5128389;27;20034;-76
2021/04/02 01:59:17;;;;;;;9.00;4.10;;;3.50;99.90;;;;;;5095588;27;20046;-76
2021/04/02 02:01:44;;;;;;;7.40;4.07;;;3.50;99.90;;;;;;5132121;27;20043;-78
2021/04/02 02:04:10;;;;;;;9.13;3.80;;;3.60;99.90;;;;;;5086866;27;20039;-77
2021/04/02 02:06:37;;;;;;;7.78;4.15;;;3.60;99.90;;;;;;5078591;27;20044;-77
2021/04/02 02:09:11;;;;;;;8.48;3.58;;;3.60;99.90;;;;;;5093864;27;20062;-76
2021/04/02 02:11:39;;;;;;;7.72;3.80;;;3.60;99.90;;;;;;5124425;27;20114;-78
2021/04/02 02:14:11;;;;;;;10.27;4.40;;;3.70;99.90;;;;;;5140620;27;20095;-78
2021/04/02 02:16:42;;;;;;;7.18;4.25;;;3.70;99.90;;;;;;5101529;27;20077;-78
2021/04/02 02:19:20;;;;;;;8.25;3.67;;;4.10;99.90;;;;;;5112586;27;20114;-78
2021/04/02 02:21:51;;;;;;;10.68;3.63;;;3.80;99.90;;;;;;5131458;27;20050;-76
2021/04/02 02:24:18;;;;;;;13.32;4.57;;;3.90;99.90;;;;;;5084784;27;20079;-77
2021/04/02 02:26:44;;;;;;;7.70;3.75;;;3.90;99.90;;;;;;5130719;27;20031;-77
2021/04/02 02:29:11;;;;;;;10.65;3.95;;;3.90;99.90;;;;;;5125678;27;20483;-77
2021/04/02 02:31:38;;;;;;;14.35;3.65;;;4.00;99.90;;;;;;5142708;27;20483;-77
2021/04/02 02:34:05;;;;;;;11.43;3.63;;;4.00;99.90;;;;;;5114350;27;20062;-77
2021/04/02 02:36:32;;;;;;;9.73;3.53;;;4.10;99.90;;;;;;5132550;27;20088;-77
2021/04/02 02:38:59;;;;;;;8.45;3.47;;;4.40;99.90;;;;;;5083031;28;20028;-77
2021/04/02 02:41:29;;;;;;;12.23;3.53;;;4.20;99.90;;;;;;5126042;27;20107;-78
2021/04/02 02:43:57;;;;;;;10.18;3.42;;;4.20;99.90;;;;;;5131343;27;20027;-77
2021/04/02 02:46:26;;;;;;;7.95;3.30;;;4.20;99.90;;;;;;5113706;27;20035;-77
2021/04/02 02:48:56;;;;;;;12.30;4.00;;;4.20;99.90;;;;;;5094774;27;20087;-76
2021/04/02 02:51:23;;;;;;;14.48;3.47;;;4.20;99.90;;;;;;5131504;27;20517;-76
2021/04/02 02:53:49;;;;;;;6.95;2.80;;;4.20;99.90;;;;;;5124728;27;20055;-77
2021/04/02 02:56:17;;;;;;;10.20;3.13;;;4.30;99.90;;;;;;5107595;27;20036;-79
2021/04/02 02:58:44;;;;;;;7.28;3.60;;;4.30;99.90;;;;;;5101612;28;20076;-77
2021/04/02 03:01:13;;;;;;;8.38;3.33;;;4.20;99.90;;;;;;5123663;27;21616;-77
2021/04/02 03:03:39;;;;;;;9.52;3.17;;;4.70;99.90;;;;;;5132562;27;20491;-77
2021/04/02 03:06:08;;;;;;;6.43;2.72;;;4.30;99.90;;;;;;5113256;27;20119;-78
2021/04/02 03:08:44;;;;;;;6.78;3.17;;;4.30;99.90;;;;;;5116008;27;20043;-77
2021/04/02 03:11:11;;;;;;;13.45;2.92;;;4.30;99.90;;;;;;5117459;27;20406;-78
2021/04/02 03:13:40;;;;;;;9.40;4.38;;;4.30;99.90;;;;;;5108698;28;20032;-78
2021/04/02 03:16:07;;;;;;;5.00;2.50;;;4.20;99.90;;;;;;5115482;27;20038;-77
2021/04/02 03:18:34;;;;;;;8.80;3.10;;;4.20;99.90;;;;;;5112243;27;20031;-77
2021/04/02 03:21:02;;;;;;;7.18;2.80;;;4.10;99.90;;;;;;5124724;27;20084;-76
2021/04/02 03:23:28;;;;;;;6.13;3.50;;;4.20;99.90;;;;;;5106203;28;20105;-77
2021/04/02 03:25:55;;;;;;;7.20;2.95;;;4.20;99.90;;;;;;5085346;28;20096;-77
2021/04/02 03:28:21;;;;;;;8.88;3.05;;;4.20;99.90;;;;;;5126436;28;20051;-77
2021/04/02 03:30:48;;;;;;;10.38;3.53;;;4.20;99.90;;;;;;5121532;28;20137;-77
2021/04/02 03:33:15;;;;;;;;;;;4.20;99.90;;;;;;5108232;28;20035;-76
2021/04/02 03:35:43;;;;;;;;;;;4.30;99.90;;;;;;5089508;28;19916;-77
2021/04/02 03:38:12;;;;;;;10.60;3.75;;;4.30;99.90;;;;;;5110120;28;19920;-78
2021/04/02 03:40:39;;;;;;;8.60;3.42;;;4.40;99.90;;;;;;5094902;28;20031;-79
2021/04/02 03:43:05;;;;;;;9.93;3.30;;;4.40;99.90;;;;;;5109516;28;20039;-76
2021/04/02 03:45:32;;;;;;;9.18;3.30;;;4.50;99.90;;;;;;5096860;28;20089;-76
2021/04/02 03:48:02;;;;;;;9.70;3.15;;;4.50;99.90;;;;;;5098629;28;20039;-77
2021/04/02 03:50:39;;;;;;;10.68;3.47;;;4.50;99.90;;;;;;5109970;28;20035;-78
2021/04/02 03:53:10;;;;;;;16.65;3.53;;;4.50;99.90;;;;;;5110708;28;20107;-78
2021/04/02 03:55:41;;;;;;;11.50;3.92;;;4.60;99.90;;;;;;5128867;27;20035;-78
2021/04/02 03:58:14;;;;;;;11.73;3.88;;;4.60;99.90;;;;;;5109180;28;20043;-78
2021/04/02 04:01:00;;;;;;;10.63;3.55;;;4.60;99.90;;;;;;5113177;28;20060;-78
2021/04/02 04:03:26;;;;;;;8.30;3.30;;;4.60;99.90;;;;;;5102471;28;20047;-78
2021/04/02 04:05:55;;;;;;;6.75;2.90;;;4.60;99.90;;;;;;5113937;28;20036;-79
2021/04/02 04:08:23;;;;;;;6.68;3.33;;;4.60;99.90;;;;;;5112818;27;20042;-78
2021/04/02 04:10:50;;;;;;;9.38;3.80;;;4.60;99.90;;;;;;5094829;28;20059;-79
2021/04/02 04:13:19;;;;;;;7.82;3.08;;;4.60;99.90;;;;;;5091982;28;20055;-76
2021/04/02 04:15:46;;;;;;;12.65;3.45;;;4.60;99.90;;;;;;5107350;27;20031;-78
2021/04/02 04:18:15;;;;;;;7.65;3.00;;;4.60;99.90;;;;;;5112949;27;20045;-78
2021/04/02 04:20:41;;;;;;;6.82;2.67;;;4.60;99.90;;;;;;5103463;27;20031;-78
2021/04/02 04:23:08;;;;;;;12.60;3.05;;;4.60;99.90;;;;;;5105638;28;20142;-78
2021/04/02 04:25:34;;;;;;;;;;;4.60;99.90;;;;;;5115262;28;20035;-78
2021/04/02 04:28:01;;;;;;;10.05;2.65;;;4.60;99.90;;;;;;5118897;27;20469;-79
2021/04/02 04:30:27;;;;;;;5.45;2.92;;;4.60;99.90;;;;;;5129481;27;20035;-79
2021/04/02 04:32:56;;;;;;;10.25;3.13;;;4.60;99.90;;;;;;5079312;28;20369;-77
2021/04/02 04:35:25;;;;;;;7.32;2.53;;;4.50;99.90;;;;;;5113999;28;20044;-78
2021/04/02 04:37:51;;;;;;;5.55;2.67;;;4.50;99.90;;;;;;5109811;27;20035;-78
2021/04/02 04:40:20;;;;;;;10.50;2.92;;;4.50;99.90;;;;;;5107283;28;20100;-78
2021/04/02 04:42:47;;;;;;;5.72;2.50;;;4.50;99.90;;;;;;5114287;27;20110;-78
2021/04/02 04:45:17;;;;;;;6.40;3.35;;;4.50;99.90;;;;;;5107074;27;20330;-77
2021/04/02 04:47:43;;;;;;;9.10;2.55;;;4.50;99.90;;;;;;5126341;27;20041;-77
2021/04/02 04:50:10;;;;;;;7.97;3.03;;;4.50;99.90;;;;;;5129169;27;20447;-78
2021/04/02 04:52:39;;;;;;;5.53;2.50;;;4.60;99.90;;;;;;5101734;28;20487;-77
2021/04/02 04:55:08;;;;;;;6.90;3.00;;;4.60;99.90;;;;;;5129004;27;20035;-78
2021/04/02 04:57:37;;;;;;;8.52;3.15;;;4.60;99.90;;;;;;5100977;28;20048;-78
2021/04/02 05:00:06;;;;;;;7.72;2.67;;;4.60;99.90;;;;;;5113592;28;20095;-77
2021/04/02 05:02:33;;;;;;;11.63;2.78;;;4.60;99.90;;;;;;5107914;28;20043;-79
2021/04/02 05:05:01;;;;;;;8.15;2.63;;;4.60;99.90;;;;;;5094987;28;20119;-78
2021/04/02 05:07:29;;;;;;;11.75;3.45;;;4.60;99.90;;;;;;5106305;28;20055;-78
2021/04/02 05:09:57;;;;;;;5.22;2.88;;;4.60;99.90;;;;;;5109967;28;20035;-78
2021/04/02 05:12:26;;;;;;;5.30;2.95;;;4.60;99.90;;;;;;5102396;28;20035;-79
2021/04/02 05:14:52;;;;;;;7.45;3.03;;;4.60;99.90;;;;;;5097499;28;20485;-80
2021/04/02 05:17:20;;;;;;;11.57;3.42;;;4.90;99.90;;;;;;5098496;28;20120;-79
2021/04/02 05:19:47;;;;;;;9.52;3.08;;;4.60;99.90;;;;;;5122216;27;20057;-78
2021/04/02 05:22:13;;;;;;;6.03;2.80;;;4.60;99.90;;;;;;5093406;28;20072;-78
2021/04/02 05:24:39;;;;;;;6.82;2.45;;;4.70;99.90;;;;;;5107370;28;20128;-79
2021/04/02 05:27:06;;;;;;;6.25;2.97;;;4.70;99.90;;;;;;5093483;28;20039;-79
2021/04/02 05:29:32;;;;;;;8.15;2.90;;;4.70;99.90;;;;;;5099407;28;20071;-78
2021/04/02 05:31:58;;;;;;;;;;;4.80;99.90;;;;;;5091199;28;20089;-77
2021/04/02 05:34:25;;;;;;;15.85;3.40;;;4.80;99.90;;;;;;5098464;28;19926;-78
2021/04/02 05:36:51;;;;;;;8.77;3.03;;;4.80;99.90;;;;;;5094906;28;20054;-77
2021/04/02 05:39:16;;;;;;;8.02;3.30;;;4.80;99.90;;;;;;5101218;28;20036;-78
2021/04/02 05:41:56;;;;;;;7.90;2.83;;;5.00;99.90;;;;;;5090071;28;20036;-78
2021/04/02 05:44:26;;;;;;;11.98;3.13;;;4.80;99.90;;;;;;5101433;28;20073;-79
2021/04/02 05:46:52;;;;;;;7.50;3.38;;;4.80;99.90;;;;;;5115852;27;20081;-79
2021/04/02 05:49:20;;;;;;;7.82;3.00;;;4.80;99.90;;;;;;5101180;28;20063;-79
2021/04/02 05:51:48;;;;;;;8.80;3.15;;;4.80;99.90;;;;;;5116890;27;20066;-78
2021/04/02 05:54:22;;;;;;;6.13;3.03;;;4.80;99.90;;;;;;5085579;28;20115;-79
2021/04/02 05:56:49;;;;;;;8.23;3.05;;;4.80;99.90;;;;;;5109810;28;20043;-79
2021/04/02 05:59:16;;;;;;;10.15;3.38;;;4.80;99.90;;;;;;5090745;28;20135;-79
2021/04/02 06:01:42;;;;;;;7.20;3.20;;;4.90;99.90;;;;;;5090625;28;20036;-79
2021/04/02 06:04:08;;;;;;;8.32;3.15;;;4.80;99.90;;;;;;5120687;27;20043;-77
2021/04/02 06:06:34;;;;;;;10.00;3.60;;;4.90;99.90;;;;;;5109439;27;20143;-80
2021/04/02 06:09:00;;;;;;;10.93;3.40;;;4.90;99.90;;;;;;5123003;27;20153;-76
2021/04/02 06:11:26;;;;;;;9.57;3.10;;;4.90;99.90;;;;;;5108004;28;20048;-79
2021/04/02 06:13:51;;;;;;;8.60;3.58;;;4.90;99.90;;;;;;5103477;27;20031;-78
2021/04/02 06:16:17;;;;;;;5.90;3.20;;;4.90;99.90;;;;;;5129015;27;20039;-79
2021/04/02 06:18:44;;;;;;;7.80;3.30;;;5.00;99.90;;;;;;5110808;28;20050;-78
2021/04/02 06:21:10;;;;;;;13.40;3.92;;;5.10;99.90;;;;;;5100980;28;20897;-77
2021/04/02 06:23:38;;;;;;;8.65;3.20;;;5.00;99.90;;;;;;5128643;27;20134;-80
2021/04/02 06:26:10;;;;;;;7.78;2.75;;;5.10;99.90;;;;;;5145516;27;20493;-79
2021/04/02 06:28:38;;;;;;;10.55;3.50;;;5.10;99.90;;;;;;5116390;27;20053;-78
2021/04/02 06:31:05;;;;;;;11.25;3.63;;;5.10;99.90;;;;;;5119325;27;20039;-79
2021/04/02 06:33:42;;;;;;;7.97;3.28;;;5.10;99.90;;;;;;5124491;27;20039;-78
2021/04/02 06:36:18;;;;;;;8.85;3.33;;;5.20;99.90;;;;;;5125007;27;20039;-80
2021/04/02 06:38:55;;;;;;;11.27;3.65;;;5.30;99.90;;;;;;5110129;27;20370;-79
2021/04/02 06:41:22;;;;;;;16.15;3.80;;;5.40;99.90;;;;;;5114571;27;20066;-79
2021/04/02 06:43:51;;;;;;;6.85;3.22;;;5.40;99.90;;;;;;5138186;27;20034;-80
2021/04/02 06:46:25;;;;;;;5.47;2.65;;;5.50;99.90;;;;;;5091606;27;20380;-80
2021/04/02 06:48:53;;;;;;;13.38;3.47;;;6.00;99.90;;;;;;5138564;27;20068;-78
2021/04/02 06:51:20;;;;;;;8.70;3.05;;;5.50;99.90;;;;;;5121215;27;20027;-78
2021/04/02 06:53:51;;;;;;;9.25;3.30;;;5.50;99.90;;;;;;5126300;27;20034;-79
2021/04/02 06:56:19;;;;;;;10.48;2.95;;;5.50;99.90;;;;;;5100465;28;20042;-77
2021/04/02 06:58:45;;;;;;;8.80;3.10;;;5.50;99.90;;;;;;5112690;27;20468;-81
2021/04/02 07:01:14;;;;;;;10.73;3.25;;;5.60;99.90;;;;;;5128929;27;20030;-77
2021/04/02 07:03:42;;;;;;;8.50;2.80;;;5.60;99.90;;;;;;5120606;27;20030;-80
2021/04/02 07:06:09;;;;;;;8.55;2.90;;;5.70;99.90;;;;;;5101648;27;20084;-79
2021/04/02 07:08:37;;;;;;;10.63;3.22;;;5.70;99.90;;;;;;5113083;27;20043;-80
2021/04/02 07:11:05;;;;;;;10.13;3.35;;;5.80;99.90;;;;;;5133029;27;20039;-78
2021/04/02 07:13:34;;;;;;;7.28;2.88;;;5.90;99.90;;;;;;5106770;27;20035;-78
2021/04/02 07:16:01;;;;;;;8.45;3.00;;;5.90;99.90;;;;;;5125439;27;20521;-78
2021/04/02 07:18:28;;;;;;;5.63;2.95;;;5.90;99.90;;;;;;5110455;27;20027;-79
2021/04/02 07:20:54;;;;;;;14.88;3.10;;;6.00;99.80;;;;;;5121104;27;20168;-76
2021/04/02 07:23:21;;;;;;;9.18;3.50;;;6.00;99.90;;;;;;5117194;27;20070;-78
2021/04/02 07:25:47;;;;;;;7.80;2.85;;;6.00;99.90;;;;;;5139169;27;20046;-79
2021/04/02 07:28:19;;;;;;;11.30;3.63;;;6.00;99.90;;;;;;5074211;28;20051;-79
2021/04/02 07:30:45;;;;;;;5.93;2.45;;;6.30;99.90;;;;;;5098258;28;20039;-79
2021/04/02 07:33:11;;;;;;;;;;;6.00;99.90;;;;;;5141518;27;20039;-79
2021/04/02 07:35:39;;;;;;;10.90;3.13;;;6.00;99.90;;;;;;5115576;28;19954;-81
2021/04/02 07:38:14;;;;;;;12.63;3.30;;;6.10;99.90;;;;;;5122137;27;20050;-78
2021/04/02 07:40:40;;;;;;;11.98;3.35;;;6.10;99.90;;;;;;5104718;28;20078;-78
2021/04/02 07:43:07;;;;;;;8.88;3.28;;;6.20;99.30;;;;;;5095909;28;20083;-80
2021/04/02 07:45:37;;;;;;;9.38;3.30;;;6.20;99.50;;;;;;5105813;28;20042;-80
2021/04/02 07:48:22;;;;;;;8.27;3.17;;;6.20;99.60;;;;;;5085244;28;20035;-78
2021/04/02 07:51:00;;;;;;;6.00;2.83;;;6.20;99.10;;;;;;5102747;28;20054;-78
2021/04/02 07:53:26;;;;;;;8.63;3.03;;;6.20;99.30;;;;;;5090420;28;20062;-81
2021/04/02 07:56:00;;;;;;;9.80;2.97;;;6.20;99.20;;;;;;5106344;28;20055;-79
2021/04/02 07:58:29;;;;;;;5.47;3.30;;;6.60;99.00;;;;;;5127354;28;20114;-80
2021/04/02 08:00:57;;;;;;;9.55;2.80;;;6.30;99.00;;;;;;5130537;28;20034;-79
2021/04/02 08:03:29;;;;;;;10.32;3.60;;;6.30;99.00;;;;;;5097802;28;20047;-78
2021/04/02 08:06:45;;;;;;;11.35;3.45;;;6.40;98.90;;;;;;5114284;28;20126;-77
2021/04/02 08:09:11;;;;;;;9.02;3.00;;;6.50;99.00;;;;;;5122019;27;20058;-80
2021/04/02 08:11:44;;;;;;;9.02;2.80;;;6.50;98.90;;;;;;5104893;28;20078;-78
2021/04/02 08:14:14;;;;;;;9.45;3.13;;;6.60;99.00;;;;;;5123659;28;20039;-81
2021/04/02 08:16:47;;;;;;;8.57;3.17;;;6.80;98.90;;;;;;5102780;28;20030;-78
2021/04/02 08:19:25;;;;;;;9.23;2.95;;;6.80;98.40;;;;;;5109598;27;20051;-79
2021/04/02 08:21:57;;;;;;;6.60;2.83;;;7.00;98.70;;;;;;5141857;27;20471;-81
2021/04/02 08:24:28;;;;;;;7.55;3.20;;;7.10;98.30;;;;;;5122114;27;20054;-80
2021/04/02 08:26:54;;;;;;;7.00;2.58;;;7.10;98.10;;;;;;5116456;28;20031;-80
2021/04/02 08:29:24;;;;;;;7.57;2.45;;;7.10;98.20;;;;;;5129780;27;20036;-78
2021/04/02 08:31:56;;;;;;;11.98;3.05;;;7.50;98.10;;;;;;5123797;27;20076;-79
2021/04/02 08:34:24;;;;;;;9.98;2.80;;;7.10;98.00;;;;;;5126349;27;20082;-80
2021/04/02 08:36:53;;;;;;;5.25;2.15;;;7.10;97.90;;;;;;5110604;28;20034;-81
2021/04/02 08:39:23;;;;;;;8.00;3.00;;;7.10;98.10;;;;;;5131824;27;20045;-78
2021/04/02 08:42:01;;;;;;;7.68;2.45;;;7.20;98.00;;;;;;5125760;27;20035;-80
2021/04/02 08:44:31;;;;;;;7.50;2.30;;;7.20;98.10;;;;;;5109600;28;20868;-81
2021/04/02 08:47:04;;;;;;;5.28;2.65;;;7.10;98.30;;;;;;5110611;27;20054;-81
2021/04/02 08:49:36;;;;;;;11.43;2.88;;;7.20;98.20;;;;;;5134684;27;20460;-81
2021/04/02 08:52:09;;;;;;;6.57;2.42;;;7.20;98.30;;;;;;5124686;27;20110;-80
2021/04/02 08:54:36;;;;;;;6.78;2.35;;;7.10;98.50;;;;;;5129630;27;20431;-80
2021/04/02 08:57:02;;;;;;;;;;;7.10;98.60;;;;;;5127799;27;20035;-78
2021/04/02 08:59:32;;;;;;;10.13;2.70;;;7.00;98.80;;;;;;5107734;27;19920;-80
2021/04/02 09:01:58;;;;;;;10.65;2.88;;;6.90;99.10;;;;;;5107759;27;20345;-81
2021/04/02 09:04:24;;;;;;;7.47;2.88;;;6.90;99.40;;;;;;5117453;27;20107;-80
2021/04/02 09:06:50;;;;;;;11.40;3.35;;;7.00;99.60;;;;;;5108554;27;20076;-80
2021/04/02 09:09:21;;;;;;;8.27;3.10;;;6.90;99.70;;;;;;5140258;27;20035;-79
2021/04/02 09:11:50;;;;;;;11.45;3.10;;;6.90;99.70;;;;;;5120436;27;20034;-79
2021/04/02 09:14:16;;;;;;;10.25;3.22;;;6.80;99.90;;;;;;5123194;27;20123;-81
2021/04/02 09:16:44;;;;;;;8.88;2.42;;;6.80;99.90;;;;;;5111081;27;20034;-78
2021/04/02 09:19:12;;;;;;;9.27;3.08;;;6.70;99.90;;;;;;5135131;27;20042;-78
2021/04/02 09:21:39;;;;;;;8.13;3.10;;;6.70;99.90;;;;;;5120914;27;20031;-79
2021/04/02 09:24:06;;;;;;;9.10;3.13;;;6.70;99.90;;;;;;5127816;27;20046;-79
2021/04/02 09:26:38;;;;;;;14.82;3.00;;;6.70;99.90;;;;;;5085601;27;20036;-79
2021/04/02 09:29:04;;;;;;;10.32;3.00;;;6.70;99.90;;;;;;5148812;27;20145;-80
2021/04/02 09:31:33;;;;;;;5.57;3.00;;;6.70;99.90;;;;;;5135243;27;20113;-80
2021/04/02 09:34:05;;;;;;;8.93;3.20;;;6.80;99.90;;;;;;5112927;28;20100;-81
2021/04/02 09:36:33;;;;;;;7.18;2.97;;;6.90;99.90;;;;;;5114766;27;20045;-82
2021/04/02 09:39:11;;;;;;;7.65;3.03;;;6.90;99.90;;;;;;5149996;27;20041;-80
2021/04/02 09:41:48;;;;;;;16.55;3.42;;;6.80;99.90;;;;;;5132626;27;20034;-82
2021/04/02 09:44:16;;;;;;;11.07;3.30;;;6.70;99.90;;;;;;5126822;27;20047;-80
2021/04/02 09:46:45;;;;;;;10.55;3.53;;;6.50;99.90;;;;;;5127179;27;20441;-79
2021/04/02 09:49:14;;;;;;;12.52;3.17;;;6.40;99.90;;;;;;5110724;27;20042;-81
2021/04/02 09:51:50;;;;;;;11.20;3.25;;;6.30;99.90;;;;;;5134888;27;20035;-81
2021/04/02 09:54:24;;;;;;;6.88;2.70;;;6.40;99.90;;;;;;5132008;27;20042;-79
2021/04/02 09:56:52;;;;;;;7.05;2.83;;;6.40;99.90;;;;;;5134083;27;20092;-81
2021/04/02 09:59:18;;;;;;;8.68;2.95;;;6.50;99.90;;;;;;5115790;27;20072;-81
2021/04/02 10:01:44;;;;;;;8.63;2.67;;;6.70;99.90;;;;;;5118523;27;20047;-81
2021/04/02 10:04:12;;;;;;;10.57;3.13;;;6.90;99.90;;;;;;5124887;27;20146;-82
2021/04/02 10:06:39;;;;;;;7.03;2.35;;;7.10;99.90;;;;;;5136808;27;20039;-80
2021/04/02 10:09:05;;;;;;;;;;;7.10;99.90;;;;;;5122934;27;20039;-83
2021/04/02 10:11:33;;;;;;;;;;;7.00;99.60;;;;;;5155273;27;19915;-81
2021/04/02 10:13:59;;;;;;;10.15;3.05;;;7.00;99.40;;;;;;5123134;27;19914;-80
2021/04/02 10:16:25;;;;;;;6.47;2.38;;;7.00;99.30;;;;;;5124542;27;20038;-80
2021/04/02 10:18:51;;;;;;;5.40;2.80;;;7.00;99.30;;;;;;5138758;27;20031;-82
2021/04/02 10:21:21;;;;;;;7.90;2.40;;;7.00;98.90;;;;;;5120957;27;20054;-82
2021/04/02 10:23:49;;;;;;;6.85;2.53;;;6.90;98.80;;;;;;5124919;27;20186;-82
2021/04/02 10:26:17;;;;;;;5.30;2.40;;;7.00;98.70;;;;;;5116733;27;20042;-80
2021/04/02 10:28:43;;;;;;;5.30;2.63;;;7.10;98.60;;;;;;5115645;27;20080;-81
2021/04/02 10:31:09;;;;;;;;;;;7.20;98.10;;;;;;5115630;27;20042;-80
2021/04/02 10:33:35;;;;;;;5.32;2.03;;;7.60;97.90;;;;;;5112070;27;19951;-81
2021/04/02 10:36:01;;;;;;;7.40;2.67;;;7.30;97.70;;;;;;5123720;27;20603;-81
2021/04/02 10:38:27;;;;;;;;;;;7.30;97.40;;;;;;5124899;27;20118;-81
2021/04/02 10:40:53;;;;;;;6.60;2.75;;;7.20;97.70;;;;;;5146486;27;19958;-80
2021/04/02 10:43:21;;;;;;;10.10;3.10;;;7.30;98.00;;;;;;5128451;27;20038;-82
2021/04/02 10:45:47;;;;;;;5.13;2.70;;;7.30;98.30;;;;;;5142175;27;20041;-78
2021/04/02 10:48:13;;;;;;;;;;;7.30;98.10;;;;;;5119605;27;20153;-80
2021/04/02 10:50:41;;;;;;;7.80;2.15;;;7.30;98.50;;;;;;5127726;27;19950;-82
2021/04/02 10:53:07;;;;;;;5.55;2.58;;;7.20;98.30;;;;;;5122532;27;20039;-81
2021/04/02 10:55:34;;;;;;;5.75;2.50;;;7.10;98.60;;;;;;5144925;27;20130;-81
2021/04/02 10:58:05;;;;;;;10.35;2.85;;;7.10;99.00;;;;;;5125219;27;20110;-81
2021/04/02 11:00:31;;;;;;;5.10;2.40;;;7.00;98.80;;;;;;5115539;27;20027;-79
2021/04/02 11:02:57;;;;;;;7.65;2.90;;;6.90;99.00;;;;;;5128090;27;20114;-77
2021/04/02 11:05:22;;;;;;;7.57;3.10;;;6.90;99.10;;;;;;5123042;27;20062;-79
2021/04/02 11:07:48;;;;;;;6.28;3.25;;;6.90;99.40;;;;;;5101250;27;20044;-79
2021/04/02 11:10:17;;;;;;;10.00;3.08;;;7.10;99.50;;;;;;5098301;27;20141;-78
2021/04/02 11:12:43;;;;;;;;;;;7.20;98.70;;;;;;5133314;27;20052;-81
2021/04/02 11:15:12;;;;;;;7.97;2.65;;;7.20;98.20;;;;;;5132690;27;20017;-80
2021/04/02 11:17:42;;;;;;;7.18;2.90;;;7.20;97.90;;;;;;5096191;27;20638;-81
2021/04/02 11:20:22;;;;;;;10.35;3.00;;;7.20;97.30;;;;;;5086903;28;20036;-81
2021/04/02 11:22:48;;;;;;;7.20;3.00;;;7.10;96.80;;;;;;5096429;28;20059;-82
2021/04/02 11:25:15;;;;;;;;;;;7.30;97.30;;;;;;5098778;28;20039;-82
2021/04/02 11:27:42;;;;;;;6.55;2.90;;;7.20;97.00;;;;;;5129694;27;19922;-81
2021/04/02 11:30:10;;;;;;;11.30;2.92;;;7.20;97.00;;;;;;5094410;28;20038;-81
2021/04/02 11:32:37;;;;;;;6.90;2.30;;;7.30;96.90;;;;;;5138209;27;20027;-79
2021/04/02 11:35:04;;;;;;;8.10;2.70;;;7.70;96.80;;;;;;5101631;28;20035;-82
2021/04/02 11:37:30;;;;;;;6.20;2.80;;;7.60;96.40;;;;;;5120598;28;20031;-78
2021/04/02 11:39:55;;;;;;;8.10;2.80;;;7.70;95.60;;;;;;5108435;28;20034;-80
2021/04/02 11:42:21;;;;;;;7.35;2.80;;;7.60;94.90;;;;;;5120375;27;20109;-79
2021/04/02 11:44:48;;;;;;;13.68;3.58;;;7.60;94.80;;;;;;5139938;27;20114;-79
2021/04/02 11:47:13;;;;;;;6.80;2.20;;;7.70;94.50;;;;;;5113325;28;20525;-79
2021/04/02 11:49:39;;;;;;;6.45;2.22;;;7.80;93.30;;;;;;5096823;28;20100;-81
2021/04/02 11:52:06;;;;;;;6.75;2.78;;;7.90;93.40;;;;;;5111770;28;20032;-83
2021/04/02 11:54:32;;;;;;;6.68;2.40;;;8.00;93.50;;;;;;5086590;28;20043;-79
2021/04/02 11:56:58;;;;;;;;;;;8.20;93.10;;;;;;5126928;28;20120;-79
2021/04/02 11:59:24;;;;;;;3.50;1.77;;;8.30;91.80;;;;;;5084775;28;20022;-81
2021/04/02 12:01:50;;;;;;;2.97;1.75;;;8.60;91.90;;;;;;5127004;28;20058;-79
2021/04/02 12:04:16;;;;;;;4.65;2.10;;;8.90;90.30;;;;;;5123114;28;20482;-80
2021/04/02 12:06:42;;;;;;;5.20;1.85;;;8.90;90.30;;;;;;5076199;28;20364;-80
2021/04/02 12:09:10;;;;;;;;;;;9.10;87.90;;;;;;5102147;28;20035;-79
2021/04/02 12:11:36;;;;;;;7.28;2.03;;;9.10;85.00;;;;;;5127986;28;19920;-78
2021/04/02 12:14:03;;;;;;;6.65;2.22;;;9.00;85.30;;;;;;5085144;28;20043;-78
2021/04/02 12:16:28;;;;;;;6.60;1.88;;;9.00;87.80;;;;;;5132214;27;20125;-78
2021/04/02 12:18:54;;;;;;;7.32;2.25;;;8.90;88.30;;;;;;5100620;27;20106;-77
2021/04/02 12:21:20;;;;;;;5.03;2.30;;;9.00;89.80;;;;;;5113090;27;20119;-77
2021/04/02 12:23:46;;;;;;;5.78;2.33;;;8.90;89.30;;;;;;5121364;27;20067;-79
2021/04/02 12:26:12;;;;;;;4.15;1.92;;;9.10;89.20;;;;;;5112542;27;20031;-77
2021/04/02 12:28:38;;;;;;;4.32;2.00;;;9.30;87.90;;;;;;5113154;27;20119;-78
2021/04/02 12:31:03;;;;;;;4.70;1.90;;;9.40;84.90;;;;;;5144691;27;20087;-78
2021/04/02 12:33:30;;;;;;;4.45;2.10;;;9.30;86.90;;;;;;5149480;27;20035;-79
2021/04/02 12:35:57;;;;;;;8.10;2.28;;;9.30;86.70;;;;;;5126604;27;20087;-77
2021/04/02 12:38:24;;;;;;;4.57;1.90;;;9.10;86.10;;;;;;5127881;27;20073;-80
2021/04/02 12:40:50;;;;;;;5.53;2.10;;;9.10;86.80;;;;;;5089309;28;20040;-78
2021/04/02 12:43:16;;;;;;;5.78;1.80;;;9.20;87.70;;;;;;5104582;27;20114;-76
2021/04/02 12:45:43;;;;;;;4.32;2.10;;;9.50;86.30;;;;;;5116320;27;20377;-79
2021/04/02 12:48:09;;;;;;;4.80;1.90;;;9.70;83.60;;;;;;5119115;27;20038;-78
2021/04/02 12:50:34;;;;;;;;;;;9.70;84.60;;;;;;5084306;27;20536;-78
2021/04/02 12:53:00;;;;;;;5.40;2.20;;;9.50;83.20;;;;;;5117809;27;19919;-78
2021/04/02 12:55:28;;;;;;;5.55;2.08;;;9.20;84.30;;;;;;5132436;27;20043;-80
2021/04/02 12:57:55;;;;;;;4.18;1.80;;;8.90;83.10;;;;;;5116141;27;20425;-79
2021/04/02 13:00:23;;;;;;;7.28;2.40;;;8.80;85.80;;;;;;5133582;27;20622;-77
2021/04/02 13:02:50;;;;;;;7.90;2.42;;;8.60;88.00;;;;;;5131809;27;20052;-76